Time;durP1;ratioP1;P1;durP2;ratioP2;P2;SDS_P1;SDS_P2;PMS_P1;PMS_P2;Temp;Humidity;BMP_temperature;BMP_pressure;BME280_temperature;BME280_humidity;BME280_pressure;Samples;Min_cycle;Max_cycle;Signal;HPM_P1;HPM_P2
2021/05/06 00:14:44;;;;;;;5.23;1.87;;;6.60;99.90;;;;;;5093821;28;20437;-67
2021/05/06 00:33:32;;;;;;;5.50;2.40;;;6.60;99.90;;;;;;5109268;28;20440;-66
2021/05/06 00:35:59;;;;;;;7.27;2.00;;;6.60;99.90;;;;;;5118027;28;20476;-67
2021/05/06 00:38:27;;;;;;;4.33;1.73;;;6.60;99.90;;;;;;5118315;28;20452;-67
2021/05/06 00:41:06;;;;;;;5.27;2.90;;;6.60;99.90;;;;;;5118164;28;20471;-67
2021/05/06 00:44:01;;;;;;;6.20;2.23;;;6.60;99.90;;;;;;5118328;28;20508;-67
2021/05/06 00:54:57;;;;;;;4.80;1.80;;;6.50;99.90;;;;;;5111945;28;20451;-67
2021/05/06 00:57:31;;;;;;;11.60;2.03;;;6.50;99.90;;;;;;5117507;28;20896;-67
2021/05/06 01:00:13;;;;;;;4.37;2.00;;;6.50;99.90;;;;;;5117971;27;20509;-67
2021/05/06 01:05:28;;;;;;;5.60;2.67;;;6.50;99.90;;;;;;5117765;28;20425;-67
2021/05/06 01:08:07;;;;;;;10.23;2.53;;;6.50;99.90;;;;;;5117475;28;20818;-66
2021/05/06 01:13:19;;;;;;;3.30;2.10;;;6.40;99.90;;;;;;5108570;28;20494;-66
2021/05/06 01:15:46;;;;;;;4.47;2.20;;;6.40;99.90;;;;;;5117632;28;20577;-66
2021/05/06 01:18:12;;;;;;;7.03;2.43;;;6.40;99.90;;;;;;5119233;28;20448;-67
2021/05/06 01:20:43;;;;;;;5.03;2.43;;;6.40;99.90;;;;;;5118004;28;20455;-67
2021/05/06 01:23:09;;;;;;;6.23;2.43;;;6.30;99.90;;;;;;5117339;28;20891;-66
2021/05/06 01:25:35;;;;;;;5.97;2.00;;;6.30;99.90;;;;;;5117723;28;20448;-67
2021/05/06 01:28:05;;;;;;;10.93;2.23;;;6.30;99.90;;;;;;5117111;28;20548;-67
2021/05/06 01:30:35;;;;;;;6.43;2.10;;;6.30;99.90;;;;;;5116790;28;20584;-66
2021/05/06 01:33:06;;;;;;;5.90;2.30;;;6.30;99.90;;;;;;5117010;28;20479;-66
2021/05/06 01:35:36;;;;;;;4.73;2.17;;;6.20;99.90;;;;;;5117616;28;20456;-66
2021/05/06 01:38:19;;;;;;;5.93;2.00;;;6.20;99.90;;;;;;5116902;28;20451;-67
2021/05/06 01:43:38;;;;;;;7.23;1.80;;;6.20;99.90;;;;;;5116905;28;20436;-67
2021/05/06 01:59:53;;;;;;;6.47;2.03;;;6.00;99.90;;;;;;5116956;28;20510;-67
2021/05/06 02:02:20;;;;;;;11.10;2.00;;;6.00;99.90;;;;;;5116592;28;20912;-66
2021/05/06 02:04:49;;;;;;;6.60;2.30;;;6.00;99.90;;;;;;5116720;28;20539;-67
2021/05/06 02:07:15;;;;;;;4.80;2.67;;;5.90;99.90;;;;;;5116654;28;20452;-66
2021/05/06 02:09:44;;;;;;;3.73;2.07;;;6.00;99.90;;;;;;5115998;28;20916;-67
2021/05/06 02:12:12;;;;;;;6.07;2.20;;;5.90;99.90;;;;;;5116830;28;20805;-66
2021/05/06 02:14:39;;;;;;;4.90;1.60;;;5.90;99.90;;;;;;5117834;28;20468;-66
2021/05/06 02:17:08;;;;;;;4.57;2.17;;;5.90;99.90;;;;;;5116284;28;20453;-66
2021/05/06 02:19:37;;;;;;;8.27;2.03;;;6.00;99.90;;;;;;5116261;28;20555;-66
2021/05/06 02:22:07;;;;;;;12.20;2.17;;;6.00;99.90;;;;;;5116993;28;20452;-67
2021/05/06 02:24:33;;;;;;;9.67;1.67;;;6.00;99.90;;;;;;5116486;28;20466;-66
2021/05/06 02:27:01;;;;;;;3.60;1.77;;;5.90;99.90;;;;;;5116526;28;20463;-67
2021/05/06 02:29:27;;;;;;;6.20;1.77;;;5.90;99.90;;;;;;5116181;28;20456;-66
2021/05/06 02:31:54;;;;;;;6.73;2.10;;;5.90;99.90;;;;;;5116016;28;20480;-66
2021/05/06 02:34:20;;;;;;;6.07;1.70;;;5.90;99.90;;;;;;5116529;28;20456;-67
2021/05/06 02:36:47;;;;;;;4.37;2.33;;;5.90;99.90;;;;;;5115921;28;20793;-66
2021/05/06 02:39:13;;;;;;;5.30;1.90;;;5.90;99.90;;;;;;5115793;28;20518;-66
2021/05/06 02:41:39;;;;;;;8.50;2.17;;;5.90;99.90;;;;;;5115925;28;20459;-66
2021/05/06 02:44:07;;;;;;;6.23;1.80;;;5.90;99.90;;;;;;5115724;28;20456;-67
2021/05/06 02:46:33;;;;;;;7.43;2.20;;;5.90;99.90;;;;;;5116192;28;20452;-67
2021/05/06 02:48:59;;;;;;;5.83;2.10;;;5.90;99.90;;;;;;5116403;28;20456;-67
2021/05/06 02:51:30;;;;;;;5.40;2.20;;;5.90;99.90;;;;;;5116082;28;20575;-66
2021/05/06 02:53:56;;;;;;;4.80;2.50;;;5.90;99.90;;;;;;5127864;28;20441;-67
2021/05/06 02:56:28;;;;;;;4.97;2.30;;;5.90;99.90;;;;;;5134881;28;21015;-67
2021/05/06 02:59:12;;;;;;;5.40;2.13;;;5.90;99.90;;;;;;5134480;28;20448;-67
2021/05/06 03:04:29;;;;;;;5.77;2.33;;;5.90;99.90;;;;;;5118375;28;20891;-66
2021/05/06 03:06:58;;;;;;;5.40;2.17;;;5.80;99.90;;;;;;5116730;28;20463;-66
2021/05/06 03:09:34;;;;;;;8.70;3.30;;;5.90;99.90;;;;;;5116962;28;20463;-66
2021/05/06 03:12:10;;;;;;;8.27;2.40;;;5.80;99.90;;;;;;5116549;28;20842;-66
2021/05/06 03:22:53;;;;;;;4.90;2.23;;;5.80;99.90;;;;;;5109451;28;20927;-66
2021/05/06 03:25:20;;;;;;;13.03;3.23;;;5.80;99.90;;;;;;5120428;28;20543;-66
2021/05/06 03:27:51;;;;;;;5.57;2.03;;;5.80;99.90;;;;;;5120124;28;20558;-67
2021/05/06 03:36:01;;;;;;;7.57;2.20;;;5.70;99.90;;;;;;5119397;28;20447;-66
2021/05/06 03:47:28;;;;;;;2.33;1.90;;;5.70;99.90;;;;;;5119727;28;20439;-65
2021/05/06 03:50:29;;;;;;;9.93;3.03;;;5.70;99.90;;;;;;5119102;28;20436;-65
2021/05/06 04:15:26;;;;;;;4.60;2.23;;;5.80;99.90;;;;;;5115888;28;20549;-66
2021/05/06 04:18:02;;;;;;;4.80;2.30;;;5.80;99.90;;;;;;5118492;28;20436;-66
2021/05/06 04:26:02;;;;;;;7.97;2.57;;;5.80;99.90;;;;;;5086417;28;20538;-66
2021/05/06 04:36:59;;;;;;;6.63;2.67;;;6.00;99.90;;;;;;5118420;28;20462;-66
2021/05/06 04:39:42;;;;;;;12.20;2.80;;;6.00;99.90;;;;;;5118409;28;20531;-65
2021/05/06 04:53:42;;;;;;;10.00;2.63;;;6.00;99.90;;;;;;5117964;28;20979;-65
2021/05/06 04:56:16;;;;;;;4.50;2.77;;;6.00;99.90;;;;;;5118924;28;20496;-65
2021/05/06 05:04:17;;;;;;;2.50;1.80;;;6.10;99.90;;;;;;5118039;28;20517;-65
2021/05/06 05:06:50;;;;;;;7.90;2.37;;;6.20;99.90;;;;;;5117913;28;20433;-65
2021/05/06 05:09:36;;;;;;;6.83;2.73;;;6.20;99.90;;;;;;5117067;28;20444;-65
2021/05/06 05:12:08;;;;;;;4.07;1.57;;;6.30;99.90;;;;;;5116684;28;20996;-65
2021/05/06 05:14:49;;;;;;;3.07;2.00;;;6.30;99.90;;;;;;5117094;28;20448;-65
2021/05/06 05:20:04;;;;;;;9.10;2.73;;;6.30;99.90;;;;;;5117588;28;20428;-67
2021/05/06 05:25:20;;;;;;;10.47;2.73;;;6.50;99.90;;;;;;5117615;28;20969;-65
2021/05/06 05:27:47;;;;;;;3.97;2.10;;;6.50;99.90;;;;;;5116879;28;20445;-67
2021/05/06 05:30:15;;;;;;;4.93;2.53;;;6.50;99.90;;;;;;5116968;27;20809;-66
2021/05/06 05:32:42;;;;;;;5.33;2.30;;;6.50;99.90;;;;;;5117595;28;20456;-65
2021/05/06 05:35:12;;;;;;;6.83;2.27;;;6.60;99.90;;;;;;5117594;28;20551;-66
2021/05/06 05:37:41;;;;;;;9.40;2.73;;;6.70;99.90;;;;;;5117476;28;20452;-66
2021/05/06 05:40:15;;;;;;;5.10;2.60;;;6.70;99.90;;;;;;5116095;28;20520;-66
2021/05/06 05:42:51;;;;;;;4.80;2.57;;;6.80;99.90;;;;;;5116504;28;20937;-66
2021/05/06 05:56:35;;;;;;;2.50;2.03;;;7.00;99.90;;;;;;5116794;28;20744;-65
2021/05/06 05:59:01;;;;;;;3.90;2.23;;;7.00;99.90;;;;;;5116548;28;20452;-65
2021/05/06 06:01:29;;;;;;;2.10;1.70;;;7.10;99.90;;;;;;5117342;28;20453;-66
2021/05/06 06:03:55;;;;;;;9.20;2.47;;;7.20;99.90;;;;;;5116600;28;20452;-65
2021/05/06 06:06:22;;;;;;;3.40;2.00;;;7.30;99.90;;;;;;5116241;28;20921;-65
2021/05/06 06:08:49;;;;;;;5.77;2.10;;;7.30;99.90;;;;;;5117168;28;20885;-65
2021/05/06 06:11:16;;;;;;;4.07;2.10;;;7.40;99.90;;;;;;5116506;28;20480;-65
2021/05/06 06:13:43;;;;;;;9.97;2.40;;;7.40;99.90;;;;;;5116161;28;20449;-65
2021/05/06 06:16:11;;;;;;;4.63;2.43;;;7.50;99.90;;;;;;5116711;28;20463;-65
2021/05/06 06:18:44;;;;;;;5.10;2.47;;;7.60;99.90;;;;;;5117301;28;20464;-66
2021/05/06 06:21:17;;;;;;;4.87;2.23;;;7.70;99.90;;;;;;5117021;28;20437;-65
2021/05/06 06:23:44;;;;;;;3.20;1.93;;;7.80;99.90;;;;;;5116974;28;20446;-65
2021/05/06 06:26:10;;;;;;;7.80;2.50;;;7.80;99.90;;;;;;5117752;28;20456;-64
2021/05/06 06:28:39;;;;;;;2.57;1.67;;;7.80;99.90;;;;;;5117569;28;20464;-65
2021/05/06 06:31:11;;;;;;;3.87;2.00;;;7.70;99.90;;;;;;5116279;28;20557;-65
2021/05/06 06:33:38;;;;;;;5.53;2.03;;;7.70;99.90;;;;;;5117089;28;20779;-65
2021/05/06 06:36:07;;;;;;;4.00;2.00;;;7.70;99.90;;;;;;5116750;28;20740;-65
2021/05/06 06:38:34;;;;;;;6.83;2.30;;;7.70;99.90;;;;;;5116852;28;20944;-65
2021/05/06 06:41:01;;;;;;;2.80;2.00;;;7.70;99.90;;;;;;5117584;28;20465;-65
2021/05/06 06:43:27;;;;;;;8.23;2.40;;;7.70;99.90;;;;;;5116418;28;20496;-64
2021/05/06 06:45:53;;;;;;;5.53;2.10;;;7.70;99.90;;;;;;5116839;28;20565;-65
2021/05/06 06:48:19;;;;;;;6.30;2.10;;;7.70;99.90;;;;;;5116574;28;20783;-65
2021/05/06 06:50:47;;;;;;;7.50;2.27;;;7.80;99.90;;;;;;5116733;28;20484;-65
2021/05/06 06:53:14;;;;;;;7.20;2.60;;;7.90;99.90;;;;;;5118694;28;20452;-65
2021/05/06 06:55:40;;;;;;;4.90;1.90;;;7.90;99.90;;;;;;5120742;28;20467;-64
2021/05/06 06:58:12;;;;;;;5.93;2.50;;;7.90;99.90;;;;;;5122202;28;20457;-65
2021/05/06 07:00:39;;;;;;;10.47;2.50;;;7.80;99.90;;;;;;5120887;28;20429;-64
2021/05/06 07:03:05;;;;;;;5.83;1.90;;;7.90;99.90;;;;;;5120723;27;20451;-64
2021/05/06 07:05:31;;;;;;;3.30;2.00;;;8.00;99.90;;;;;;5120591;28;20463;-63
2021/05/06 07:08:16;;;;;;;4.33;1.80;;;8.10;99.90;;;;;;5120445;28;20467;-65
2021/05/06 07:10:44;;;;;;;10.83;1.77;;;8.20;99.90;;;;;;5120289;28;20502;-65
2021/05/06 07:13:11;;;;;;;7.50;1.93;;;8.30;99.90;;;;;;5120477;28;20463;-64
2021/05/06 07:15:37;;;;;;;4.50;1.70;;;8.30;99.90;;;;;;5120340;28;20513;-65
2021/05/06 07:18:07;;;;;;;3.60;1.97;;;8.40;99.90;;;;;;5121303;28;20453;-64
2021/05/06 07:20:33;;;;;;;6.57;1.83;;;8.50;99.90;;;;;;5121686;28;20457;-64
2021/05/06 07:22:59;;;;;;;4.47;2.20;;;8.60;99.90;;;;;;5120761;27;20509;-64
2021/05/06 07:25:26;;;;;;;14.37;3.63;;;8.60;99.90;;;;;;5120493;28;20789;-65
2021/05/06 07:27:55;;;;;;;3.37;2.00;;;8.60;99.90;;;;;;5120295;28;20460;-67
2021/05/06 07:30:21;;;;;;;7.17;2.20;;;8.60;99.90;;;;;;5120175;28;20495;-65
2021/05/06 07:32:47;;;;;;;6.90;2.03;;;8.60;99.90;;;;;;5120026;28;20451;-65
2021/05/06 07:35:14;;;;;;;2.73;1.83;;;8.70;99.90;;;;;;5120046;28;20505;-64
2021/05/06 07:37:40;;;;;;;2.77;1.90;;;8.80;99.90;;;;;;5120000;28;20444;-65
2021/05/06 07:40:08;;;;;;;4.63;1.90;;;8.90;99.90;;;;;;5120295;28;20452;-65
2021/05/06 07:42:35;;;;;;;6.07;1.87;;;9.00;99.90;;;;;;5121137;28;20775;-65
2021/05/06 07:45:01;;;;;;;5.40;2.07;;;9.00;99.90;;;;;;5120584;28;20463;-65
2021/05/06 07:47:28;;;;;;;4.80;1.87;;;9.00;99.90;;;;;;5120259;28;20452;-64
2021/05/06 07:49:54;;;;;;;4.77;2.00;;;9.00;99.90;;;;;;5119480;28;20482;-65
2021/05/06 07:52:21;;;;;;;6.50;1.87;;;8.90;99.90;;;;;;5120004;28;20480;-64
2021/05/06 07:54:48;;;;;;;3.30;2.03;;;8.80;99.90;;;;;;5119594;27;20452;-65
2021/05/06 07:57:14;;;;;;;3.63;2.00;;;8.80;99.90;;;;;;5119444;28;20456;-65
2021/05/06 07:59:43;;;;;;;6.43;2.03;;;8.70;99.90;;;;;;5119740;28;20452;-65
2021/05/06 08:02:10;;;;;;;3.87;2.13;;;8.70;99.90;;;;;;5119166;28;20456;-64
2021/05/06 08:04:36;;;;;;;4.83;2.20;;;8.70;99.90;;;;;;5118188;28;20456;-65
2021/05/06 08:07:03;;;;;;;6.67;3.37;;;8.80;99.90;;;;;;5118358;28;20456;-65
2021/05/06 08:09:29;;;;;;;3.07;2.23;;;8.90;99.90;;;;;;5119586;28;20847;-64
2021/05/06 08:11:58;;;;;;;6.37;2.30;;;9.10;99.90;;;;;;5121271;28;20536;-64
2021/05/06 08:14:25;;;;;;;7.50;1.93;;;9.20;99.90;;;;;;5120464;27;20463;-65
2021/05/06 08:16:52;;;;;;;3.40;1.87;;;9.30;99.90;;;;;;5118624;28;20448;-65
2021/05/06 08:19:18;;;;;;;5.63;1.70;;;9.30;99.90;;;;;;5120498;28;20516;-65
2021/05/06 08:21:45;;;;;;;3.10;1.60;;;9.30;99.90;;;;;;5118384;28;20928;-63
2021/05/06 08:24:12;;;;;;;2.27;1.53;;;9.40;99.90;;;;;;5118562;28;20460;-64
2021/05/06 08:26:38;;;;;;;4.00;2.13;;;9.40;99.90;;;;;;5119204;28;20460;-65
2021/05/06 08:29:05;;;;;;;6.60;2.60;;;9.40;99.90;;;;;;5119924;27;20452;-65
2021/05/06 08:31:31;;;;;;;6.27;2.47;;;9.40;99.90;;;;;;5118509;28;20507;-65
2021/05/06 08:33:58;;;;;;;5.07;2.13;;;9.50;99.90;;;;;;5119781;28;20464;-65
2021/05/06 08:36:25;;;;;;;4.53;1.90;;;9.60;99.90;;;;;;5118782;28;20494;-65
2021/05/06 08:38:51;;;;;;;9.30;2.47;;;9.60;99.90;;;;;;5117480;28;20900;-64
2021/05/06 08:41:18;;;;;;;4.03;2.10;;;9.60;99.90;;;;;;5118841;28;20778;-65
2021/05/06 08:43:50;;;;;;;7.13;2.60;;;9.70;99.90;;;;;;5118244;28;20457;-64
2021/05/06 08:46:18;;;;;;;5.40;2.30;;;9.80;99.90;;;;;;5118947;28;20440;-65
2021/05/06 08:48:45;;;;;;;3.77;2.20;;;9.80;99.90;;;;;;5118709;28;20465;-65
2021/05/06 08:51:13;;;;;;;3.63;2.00;;;9.80;99.90;;;;;;5118360;28;20489;-65
2021/05/06 08:53:40;;;;;;;2.77;2.10;;;9.90;99.90;;;;;;5118642;28;20453;-64
2021/05/06 08:56:06;;;;;;;5.93;2.53;;;10.00;99.90;;;;;;5118912;28;20563;-64
2021/05/06 08:58:32;;;;;;;4.27;2.13;;;10.00;99.90;;;;;;5119354;28;20468;-65
2021/05/06 09:00:58;;;;;;;5.90;2.20;;;10.00;99.90;;;;;;5118540;28;20776;-64
2021/05/06 09:03:24;;;;;;;6.53;2.30;;;10.00;99.90;;;;;;5118768;28;20510;-64
2021/05/06 09:06:11;;;;;;;5.67;2.97;;;10.10;99.90;;;;;;5118829;28;20460;-65
2021/05/06 09:08:40;;;;;;;12.00;3.30;;;10.20;99.90;;;;;;5118880;28;20501;-65
2021/05/06 09:11:06;;;;;;;6.77;2.60;;;10.30;99.90;;;;;;5118486;28;20482;-65
2021/05/06 09:13:34;;;;;;;4.73;3.20;;;10.30;99.90;;;;;;5119400;28;20452;-64
2021/05/06 09:16:01;;;;;;;4.70;3.30;;;10.40;99.90;;;;;;5117875;28;20457;-65
2021/05/06 09:18:36;;;;;;;4.97;3.60;;;10.40;99.90;;;;;;5118937;28;20505;-65
2021/05/06 09:21:02;;;;;;;7.60;3.20;;;10.50;99.90;;;;;;5118934;28;20448;-64
2021/05/06 09:23:28;;;;;;;5.30;3.10;;;10.60;99.90;;;;;;5119293;28;20457;-65
2021/05/06 09:25:55;;;;;;;5.00;3.50;;;10.70;99.90;;;;;;5118318;28;20772;-65
2021/05/06 09:28:23;;;;;;;5.90;3.27;;;10.90;99.90;;;;;;5118647;28;20544;-65
2021/05/06 09:30:51;;;;;;;4.10;3.70;;;11.00;99.90;;;;;;5118837;28;20887;-64
2021/05/06 09:33:25;;;;;;;4.53;4.00;;;10.90;99.90;;;;;;5117849;28;20549;-64
2021/05/06 09:35:51;;;;;;;5.17;3.50;;;10.80;99.90;;;;;;5117728;28;20437;-64
2021/05/06 09:38:30;;;;;;;3.90;3.53;;;10.70;99.90;;;;;;5118453;28;20830;-65
2021/05/06 09:41:01;;;;;;;5.10;4.60;;;10.60;99.90;;;;;;5118019;28;20444;-65
2021/05/06 09:43:31;;;;;;;5.63;4.37;;;10.50;99.90;;;;;;5117256;28;20480;-65
2021/05/06 09:45:59;;;;;;;9.17;4.07;;;10.40;99.90;;;;;;5118310;28;20456;-66
2021/05/06 09:48:25;;;;;;;6.70;3.97;;;10.40;99.90;;;;;;5118327;28;20475;-65
2021/05/06 09:50:58;;;;;;;7.23;3.77;;;10.50;99.90;;;;;;5117912;28;20470;-64
2021/05/06 09:53:29;;;;;;;6.27;4.13;;;10.70;99.90;;;;;;5118044;27;20432;-64
2021/05/06 09:55:58;;;;;;;5.27;3.93;;;10.80;99.90;;;;;;5117757;28;20952;-64
2021/05/06 09:58:27;;;;;;;4.30;3.40;;;10.80;99.90;;;;;;5118204;28;20755;-65
2021/05/06 10:00:54;;;;;;;5.20;3.80;;;10.80;99.90;;;;;;5118476;28;20488;-65
2021/05/06 10:03:22;;;;;;;4.70;3.80;;;10.80;99.90;;;;;;5118525;28;20448;-66
2021/05/06 10:05:49;;;;;;;5.30;4.80;;;10.80;99.90;;;;;;5117358;28;20456;-65
2021/05/06 10:08:16;;;;;;;8.50;5.27;;;10.60;99.90;;;;;;5116978;28;20620;-64
2021/05/06 10:10:44;;;;;;;6.10;5.13;;;10.30;99.90;;;;;;5117150;28;20452;-66
2021/05/06 10:13:12;;;;;;;6.37;5.33;;;10.10;99.90;;;;;;5116572;27;20452;-64
2021/05/06 10:15:39;;;;;;;5.20;4.50;;;10.00;99.90;;;;;;5118499;28;20971;-64
2021/05/06 10:18:06;;;;;;;7.30;5.90;;;9.80;99.90;;;;;;5117783;28;20452;-65
2021/05/06 10:20:33;;;;;;;5.87;5.30;;;9.80;99.90;;;;;;5116889;28;20460;-65
2021/05/06 10:23:01;;;;;;;9.10;6.23;;;9.70;99.90;;;;;;5118261;28;20463;-64
2021/05/06 10:25:28;;;;;;;9.93;6.30;;;9.80;99.90;;;;;;5117557;28;20927;-66
2021/05/06 10:27:55;;;;;;;6.73;6.03;;;9.80;99.90;;;;;;5116823;28;20708;-66
2021/05/06 10:30:23;;;;;;;9.00;6.50;;;9.90;99.90;;;;;;5116515;28;20963;-64
2021/05/06 10:32:49;;;;;;;8.60;5.77;;;9.80;99.90;;;;;;5116796;28;20480;-64
2021/05/06 10:35:20;;;;;;;6.07;5.47;;;9.80;99.90;;;;;;5116397;28;20453;-65
2021/05/06 10:37:53;;;;;;;6.60;5.90;;;9.80;99.90;;;;;;5117590;28;20456;-64
2021/05/06 10:40:33;;;;;;;9.47;6.00;;;9.70;99.90;;;;;;5118421;28;20447;-64
2021/05/06 10:43:20;;;;;;;8.07;6.50;;;9.70;99.90;;;;;;5116835;28;20469;-64
2021/05/06 10:46:02;;;;;;;8.23;6.43;;;9.80;99.90;;;;;;5116569;28;20470;-64
2021/05/06 10:49:01;;;;;;;8.03;6.60;;;9.70;99.90;;;;;;5116580;28;20709;-65
2021/05/06 10:51:29;;;;;;;8.33;6.67;;;9.60;99.90;;;;;;5116284;28;20468;-65
2021/05/06 10:53:55;;;;;;;9.70;7.07;;;9.50;99.90;;;;;;5116842;28;20513;-66
2021/05/06 10:56:23;;;;;;;7.63;6.80;;;9.50;99.90;;;;;;5117352;28;20570;-64
2021/05/06 10:58:49;;;;;;;7.87;7.07;;;9.30;99.90;;;;;;5117934;28;20461;-65
2021/05/06 11:01:21;;;;;;;7.57;6.77;;;9.10;99.90;;;;;;5117887;28;20781;-66
2021/05/06 11:04:30;;;;;;;10.37;6.60;;;8.90;99.90;;;;;;5117557;28;20445;-65
2021/05/06 11:07:13;;;;;;;8.20;6.73;;;8.60;99.90;;;;;;5052909;28;20454;-66
2021/05/06 11:09:54;;;;;;;9.57;7.80;;;8.50;99.90;;;;;;5113875;28;20484;-65
2021/05/06 11:12:26;;;;;;;10.87;8.70;;;8.40;99.90;;;;;;5116585;28;20555;-65
2021/05/06 11:15:36;;;;;;;24.57;15.07;;;8.50;99.90;;;;;;5117632;28;20464;-65
2021/05/06 11:18:06;;;;;;;7.10;6.00;;;8.80;99.90;;;;;;5117026;28;20433;-65
2021/05/06 11:20:58;;;;;;;6.20;5.30;;;9.40;99.90;;;;;;5117798;28;20463;-65
2021/05/06 11:23:33;;;;;;;4.00;3.67;;;10.30;99.90;;;;;;5116531;28;20437;-64
2021/05/06 11:26:17;;;;;;;4.10;3.70;;;11.10;99.90;;;;;;5116459;28;20787;-65
2021/05/06 11:28:50;;;;;;;4.40;4.00;;;12.00;99.90;;;;;;5116052;28;20515;-65
2021/05/06 11:31:48;;;;;;;4.23;3.83;;;12.80;99.90;;;;;;5115690;28;20484;-65
2021/05/06 11:34:36;;;;;;;3.50;3.20;;;13.40;99.90;;;;;;5053033;28;20558;-65
2021/05/06 11:37:17;;;;;;;4.10;3.70;;;13.90;99.90;;;;;;5110334;28;20501;-65
2021/05/06 11:39:48;;;;;;;6.57;4.07;;;13.90;99.90;;;;;;5119512;28;20437;-64
2021/05/06 11:42:15;;;;;;;5.27;4.60;;;14.30;99.90;;;;;;5119799;28;20513;-64
2021/05/06 11:44:41;;;;;;;5.33;4.03;;;14.60;99.90;;;;;;5119195;28;20529;-66
2021/05/06 11:47:07;;;;;;;4.07;3.77;;;14.70;99.90;;;;;;5117979;28;20605;-65
2021/05/06 11:49:34;;;;;;;4.77;4.33;;;14.80;99.90;;;;;;5119180;28;20456;-64
2021/05/06 11:52:00;;;;;;;4.60;4.20;;;15.00;99.90;;;;;;5118746;28;20472;-66
2021/05/06 11:54:30;;;;;;;5.10;4.40;;;15.00;99.90;;;;;;5118765;28;20471;-64
2021/05/06 11:56:58;;;;;;;5.77;4.40;;;14.80;99.90;;;;;;5119441;28;20456;-65
2021/05/06 11:59:26;;;;;;;5.40;4.90;;;14.50;99.90;;;;;;5119750;28;20552;-65
2021/05/06 12:01:53;;;;;;;6.70;5.40;;;14.30;99.90;;;;;;5119373;28;20792;-64
2021/05/06 12:04:23;;;;;;;6.70;6.10;;;13.80;99.90;;;;;;5119501;28;20457;-64
2021/05/06 12:06:50;;;;;;;5.80;5.30;;;13.20;99.90;;;;;;5119437;28;20506;-66
2021/05/06 12:09:22;;;;;;;10.57;5.70;;;12.90;99.90;;;;;;5119608;28;20473;-65
2021/05/06 12:11:50;;;;;;;6.07;5.47;;;12.80;99.90;;;;;;5119528;28;20464;-65
2021/05/06 12:14:28;;;;;;;5.90;5.40;;;12.50;99.90;;;;;;5119002;28;20457;-65
2021/05/06 12:16:54;;;;;;;7.13;6.43;;;12.30;99.90;;;;;;5119841;28;20436;-65
2021/05/06 12:19:20;;;;;;;7.33;6.60;;;11.80;99.90;;;;;;5120614;28;20912;-64
2021/05/06 12:21:48;;;;;;;6.63;6.00;;;11.60;99.90;;;;;;5119323;28;20490;-64
2021/05/06 12:24:26;;;;;;;6.90;6.20;;;11.60;99.90;;;;;;5118539;28;20456;-64
2021/05/06 12:26:53;;;;;;;6.23;5.63;;;11.70;99.90;;;;;;5118693;28;20436;-65
2021/05/06 12:29:24;;;;;;;7.27;6.60;;;11.70;99.90;;;;;;5119059;28;20462;-65
2021/05/06 12:31:51;;;;;;;6.17;5.57;;;11.70;99.90;;;;;;5118393;28;21035;-66
2021/05/06 12:34:20;;;;;;;6.20;5.67;;;11.80;99.90;;;;;;5118117;28;20965;-67
2021/05/06 12:36:54;;;;;;;6.40;5.90;;;12.00;99.90;;;;;;5118675;28;20517;-66
2021/05/06 12:39:22;;;;;;;6.20;5.60;;;12.30;99.90;;;;;;5118172;28;20452;-66
2021/05/06 12:41:50;;;;;;;5.80;5.30;;;12.40;99.90;;;;;;5119126;28;20483;-67
2021/05/06 12:44:42;;;;;;;6.30;5.70;;;12.40;99.90;;;;;;5118253;28;20795;-65
2021/05/06 12:47:19;;;;;;;5.53;5.07;;;12.40;99.90;;;;;;5118007;28;20464;-64
2021/05/06 12:49:48;;;;;;;5.10;4.63;;;12.50;99.90;;;;;;5118633;28;20440;-64
2021/05/06 12:52:31;;;;;;;5.60;4.77;;;12.70;99.90;;;;;;5118488;28;20491;-65
2021/05/06 12:55:01;;;;;;;9.23;4.93;;;12.70;99.90;;;;;;5118319;27;20467;-65
2021/05/06 12:57:27;;;;;;;5.87;5.07;;;12.50;99.90;;;;;;5118663;28;20460;-65
2021/05/06 12:59:53;;;;;;;5.07;4.10;;;12.30;99.90;;;;;;5118682;28;20452;-65
2021/05/06 13:02:20;;;;;;;5.67;4.57;;;12.20;99.90;;;;;;5120787;28;20452;-64
2021/05/06 13:04:49;;;;;;;5.00;3.83;;;12.40;99.90;;;;;;5118485;27;20456;-65
2021/05/06 13:07:16;;;;;;;4.30;3.90;;;13.20;99.90;;;;;;5117811;28;20477;-65
2021/05/06 13:09:48;;;;;;;4.07;3.67;;;14.10;99.90;;;;;;5117975;28;20459;-65
2021/05/06 13:12:17;;;;;;;3.50;3.27;;;14.80;99.90;;;;;;5117062;28;20461;-65
2021/05/06 13:14:54;;;;;;;3.93;3.63;;;14.80;99.90;;;;;;5117158;28;20456;-65
2021/05/06 13:17:26;;;;;;;4.40;4.00;;;14.20;99.90;;;;;;5118219;28;20440;-65
2021/05/06 13:19:52;;;;;;;3.87;3.23;;;13.50;99.90;;;;;;5118205;28;20471;-65
2021/05/06 13:22:20;;;;;;;3.53;3.27;;;13.30;99.90;;;;;;5117679;28;20452;-65
2021/05/06 13:24:49;;;;;;;5.73;3.03;;;13.10;99.90;;;;;;5118132;28;20535;-65
2021/05/06 13:27:17;;;;;;;4.37;3.40;;;13.20;99.90;;;;;;5117907;28;20532;-64
2021/05/06 13:29:48;;;;;;;3.33;2.80;;;13.60;99.90;;;;;;5117197;28;20452;-64
2021/05/06 13:32:14;;;;;;;3.13;2.70;;;14.30;99.90;;;;;;5117135;28;20468;-63
2021/05/06 13:34:53;;;;;;;2.33;2.13;;;15.10;99.90;;;;;;5117734;28;20463;-64
2021/05/06 13:37:20;;;;;;;3.30;3.00;;;15.10;99.90;;;;;;5117747;28;20463;-65
2021/05/06 13:39:46;;;;;;;3.17;2.80;;;14.80;99.90;;;;;;5117502;28;20452;-66
2021/05/06 13:42:17;;;;;;;4.20;2.70;;;14.70;99.90;;;;;;5117588;28;20476;-66
2021/05/06 13:44:43;;;;;;;3.23;3.03;;;14.40;99.90;;;;;;5117871;28;20447;-64
2021/05/06 13:47:10;;;;;;;3.63;3.20;;;14.10;99.90;;;;;;5117762;28;20452;-64
2021/05/06 13:49:37;;;;;;;4.43;3.00;;;13.90;99.90;;;;;;5117474;28;20803;-65
2021/05/06 13:52:04;;;;;;;3.50;2.70;;;13.90;99.90;;;;;;5117865;28;20481;-64
2021/05/06 13:54:31;;;;;;;2.70;2.50;;;13.90;99.90;;;;;;5117570;28;20462;-65
2021/05/06 13:56:57;;;;;;;3.53;2.43;;;13.70;99.90;;;;;;5118280;28;20461;-66
2021/05/06 13:59:25;;;;;;;2.77;2.57;;;14.00;99.90;;;;;;5119680;28;20467;-65
2021/05/06 14:01:53;;;;;;;3.03;2.27;;;13.70;99.90;;;;;;5117420;28;20924;-64
2021/05/06 14:04:20;;;;;;;2.47;2.27;;;13.60;99.90;;;;;;5118279;28;20486;-65
2021/05/06 14:06:46;;;;;;;4.47;2.43;;;13.50;99.90;;;;;;5119090;28;20608;-64
2021/05/06 14:09:15;;;;;;;2.37;2.17;;;13.30;99.90;;;;;;5117919;28;20480;-66
2021/05/06 14:11:41;;;;;;;3.23;2.50;;;13.30;99.90;;;;;;5118489;28;20477;-65
2021/05/06 14:14:08;;;;;;;3.00;2.80;;;13.10;99.90;;;;;;5119512;28;20456;-65
2021/05/06 14:16:35;;;;;;;2.83;2.57;;;13.10;99.90;;;;;;5118372;28;20952;-65
2021/05/06 14:19:01;;;;;;;5.13;2.70;;;13.20;99.90;;;;;;5117454;28;20513;-65
2021/05/06 14:21:29;;;;;;;3.47;2.93;;;13.30;99.90;;;;;;5117698;28;20514;-65
2021/05/06 14:23:55;;;;;;;2.57;2.37;;;13.30;99.90;;;;;;5118207;28;20504;-65
2021/05/06 14:26:22;;;;;;;2.93;2.73;;;13.20;99.90;;;;;;5117598;28;20452;-65
2021/05/06 14:28:49;;;;;;;2.93;2.70;;;13.40;99.90;;;;;;5117662;28;20464;-65
2021/05/06 14:31:15;;;;;;;2.90;2.70;;;13.30;99.90;;;;;;5117657;28;20480;-65
2021/05/06 14:33:42;;;;;;;3.20;2.90;;;13.30;99.90;;;;;;5117107;28;20456;-65
2021/05/06 14:36:12;;;;;;;3.80;3.17;;;13.60;99.90;;;;;;5117062;28;20540;-65
2021/05/06 14:38:39;;;;;;;2.90;2.70;;;13.70;99.90;;;;;;5116890;28;20463;-64
2021/05/06 14:41:06;;;;;;;2.60;2.40;;;13.60;99.90;;;;;;5117274;28;20467;-66
2021/05/06 14:43:33;;;;;;;3.00;2.70;;;13.60;99.90;;;;;;5117188;28;20457;-66
2021/05/06 14:46:02;;;;;;;2.53;2.33;;;13.90;99.90;;;;;;5116842;28;20457;-65
2021/05/06 14:48:28;;;;;;;2.80;2.60;;;14.20;99.90;;;;;;5116521;28;20969;-65
2021/05/06 14:50:56;;;;;;;3.20;2.90;;;14.60;99.90;;;;;;5117192;28;20448;-64
2021/05/06 14:53:23;;;;;;;2.90;2.70;;;14.60;99.90;;;;;;5116721;28;20499;-65
2021/05/06 14:55:49;;;;;;;2.80;2.60;;;14.50;99.90;;;;;;5116261;28;20464;-67
2021/05/06 14:58:16;;;;;;;3.27;2.50;;;14.30;99.90;;;;;;5116716;28;20833;-64
2021/05/06 15:00:42;;;;;;;2.70;2.43;;;14.10;99.90;;;;;;5116673;28;20453;-65
2021/05/06 15:03:09;;;;;;;4.53;3.27;;;14.00;99.90;;;;;;5115922;28;20452;-65
2021/05/06 15:05:35;;;;;;;2.80;2.60;;;13.90;99.90;;;;;;5115835;28;20806;-66
2021/05/06 15:08:05;;;;;;;2.73;2.53;;;13.90;99.90;;;;;;5116133;28;20467;-66
2021/05/06 15:10:32;;;;;;;2.83;2.63;;;13.80;99.90;;;;;;5116546;28;20467;-66
2021/05/06 15:12:59;;;;;;;2.47;2.27;;;13.70;99.90;;;;;;5117455;28;20476;-65
2021/05/06 15:15:25;;;;;;;2.97;2.77;;;13.50;99.90;;;;;;5120023;28;20868;-65
2021/05/06 15:17:55;;;;;;;2.70;2.50;;;13.30;99.90;;;;;;5119259;28;20456;-65
2021/05/06 15:20:22;;;;;;;2.70;2.23;;;13.10;99.90;;;;;;5120096;28;20453;-65
2021/05/06 15:22:48;;;;;;;2.60;2.10;;;13.00;99.90;;;;;;5120267;28;20491;-65
2021/05/06 15:25:15;;;;;;;2.73;2.53;;;12.90;99.90;;;;;;5119868;28;20453;-65
2021/05/06 15:27:43;;;;;;;2.90;2.60;;;12.80;99.90;;;;;;5121551;28;20772;-64
2021/05/06 15:30:11;;;;;;;2.83;2.50;;;12.80;99.90;;;;;;5121348;28;20494;-65
2021/05/06 15:32:37;;;;;;;2.90;2.70;;;12.80;99.90;;;;;;5121330;28;20587;-64
2021/05/06 15:35:05;;;;;;;2.70;2.50;;;13.00;99.90;;;;;;5121259;28;20467;-64
2021/05/06 15:37:32;;;;;;;3.23;2.47;;;13.20;99.90;;;;;;5121686;28;20555;-64
2021/05/06 15:39:58;;;;;;;2.77;2.57;;;13.40;99.90;;;;;;5120424;28;20452;-64
2021/05/06 15:42:25;;;;;;;2.33;2.13;;;13.50;99.90;;;;;;5120633;28;20459;-64